sensor_id;sensor_type;location;lat;lon;timestamp;temperature;humidity
34766;DHT22;20984;43.508;1.504;2023-04-30T00:01:55;14.90;99.90
34766;DHT22;20984;43.508;1.504;2023-04-30T00:04:21;14.90;99.90
34766;DHT22;20984;43.508;1.504;2023-04-30T00:06:46;14.90;99.90
34766;DHT22;20984;43.508;1.504;2023-04-30T00:09:12;14.80;99.90
34766;DHT22;20984;43.508;1.504;2023-04-30T00:11:37;14.80;99.90
34766;DHT22;20984;43.508;1.504;2023-04-30T00:14:03;14.80;99.90
34766;DHT22;20984;43.508;1.504;2023-04-30T00:16:29;14.70;99.90
34766;DHT22;20984;43.508;1.504;2023-04-30T00:18:54;14.60;99.90
34766;DHT22;20984;43.508;1.504;2023-04-30T00:21:20;14.60;99.90
34766;DHT22;20984;43.508;1.504;2023-04-30T00:23:46;14.50;99.90
34766;DHT22;20984;43.508;1.504;2023-04-30T00:26:11;14.50;99.90
34766;DHT22;20984;43.508;1.504;2023-04-30T00:28:37;14.50;99.90
34766;DHT22;20984;43.508;1.504;2023-04-30T00:31:02;14.50;99.90
34766;DHT22;20984;43.508;1.504;2023-04-30T00:33:31;14.40;99.90
34766;DHT22;20984;43.508;1.504;2023-04-30T00:35:57;14.30;99.90
34766;DHT22;20984;43.508;1.504;2023-04-30T00:38:22;14.30;99.90
34766;DHT22;20984;43.508;1.504;2023-04-30T00:40:48;14.30;99.90
34766;DHT22;20984;43.508;1.504;2023-04-30T00:43:14;14.30;99.90
34766;DHT22;20984;43.508;1.504;2023-04-30T00:45:40;14.30;99.90
34766;DHT22;20984;43.508;1.504;2023-04-30T00:48:06;14.30;99.90
34766;DHT22;20984;43.508;1.504;2023-04-30T00:50:32;14.30;99.90
34766;DHT22;20984;43.508;1.504;2023-04-30T00:53:00;14.20;99.90
34766;DHT22;20984;43.508;1.504;2023-04-30T00:55:26;14.30;99.90
34766;DHT22;20984;43.508;1.504;2023-04-30T00:57:52;14.20;99.90
34766;DHT22;20984;43.508;1.504;2023-04-30T01:00:18;14.20;99.90
34766;DHT22;20984;43.508;1.504;2023-04-30T01:02:43;14.30;99.90
34766;DHT22;20984;43.508;1.504;2023-04-30T01:05:09;14.30;99.90
34766;DHT22;20984;43.508;1.504;2023-04-30T01:07:35;14.30;99.90
34766;DHT22;20984;43.508;1.504;2023-04-30T01:10:04;14.20;99.90
34766;DHT22;20984;43.508;1.504;2023-04-30T01:15:46;14.20;99.90
34766;DHT22;20984;43.508;1.504;2023-04-30T01:18:36;14.30;99.90
34766;DHT22;20984;43.508;1.504;2023-04-30T01:21:06;14.30;99.90
34766;DHT22;20984;43.508;1.504;2023-04-30T01:23:46;14.30;99.90
34766;DHT22;20984;43.508;1.504;2023-04-30T01:26:36;14.30;99.90
34766;DHT22;20984;43.508;1.504;2023-04-30T01:29:03;14.30;99.90
34766;DHT22;20984;43.508;1.504;2023-04-30T01:31:29;14.30;99.90
34766;DHT22;20984;43.508;1.504;2023-04-30T01:33:55;14.30;99.90
34766;DHT22;20984;43.508;1.504;2023-04-30T01:36:43;14.30;99.90
34766;DHT22;20984;43.508;1.504;2023-04-30T01:42:19;14.40;99.90
34766;DHT22;20984;43.508;1.504;2023-04-30T01:47:51;14.40;99.90
34766;DHT22;20984;43.508;1.504;2023-04-30T01:50:27;14.40;99.90
34766;DHT22;20984;43.508;1.504;2023-04-30T01:52:59;14.50;99.90
34766;DHT22;20984;43.508;1.504;2023-04-30T01:58:02;14.50;99.90
34766;DHT22;20984;43.508;1.504;2023-04-30T02:00:29;14.50;99.90
34766;DHT22;20984;43.508;1.504;2023-04-30T02:02:56;14.50;99.90
34766;DHT22;20984;43.508;1.504;2023-04-30T02:05:22;14.50;99.90
34766;DHT22;20984;43.508;1.504;2023-04-30T02:07:49;14.40;99.90
34766;DHT22;20984;43.508;1.504;2023-04-30T02:10:16;14.40;99.90
34766;DHT22;20984;43.508;1.504;2023-04-30T02:12:42;14.50;99.90
34766;DHT22;20984;43.508;1.504;2023-04-30T02:15:08;14.40;99.90
34766;DHT22;20984;43.508;1.504;2023-04-30T02:17:34;14.50;99.90
34766;DHT22;20984;43.508;1.504;2023-04-30T02:20:00;14.50;99.90
34766;DHT22;20984;43.508;1.504;2023-04-30T02:22:26;14.50;99.90
34766;DHT22;20984;43.508;1.504;2023-04-30T02:24:52;14.40;99.90
34766;DHT22;20984;43.508;1.504;2023-04-30T02:27:20;14.50;99.90
34766;DHT22;20984;43.508;1.504;2023-04-30T02:29:46;14.50;99.90
34766;DHT22;20984;43.508;1.504;2023-04-30T02:32:12;14.50;99.90
34766;DHT22;20984;43.508;1.504;2023-04-30T02:34:39;14.50;99.90
34766;DHT22;20984;43.508;1.504;2023-04-30T02:37:05;14.50;99.90
34766;DHT22;20984;43.508;1.504;2023-04-30T02:39:31;14.50;99.90
34766;DHT22;20984;43.508;1.504;2023-04-30T02:41:57;14.50;99.90
34766;DHT22;20984;43.508;1.504;2023-04-30T02:44:22;14.40;99.90
34766;DHT22;20984;43.508;1.504;2023-04-30T02:46:48;14.40;99.90
34766;DHT22;20984;43.508;1.504;2023-04-30T02:49:14;14.40;99.90
34766;DHT22;20984;43.508;1.504;2023-04-30T02:51:39;14.40;99.90
34766;DHT22;20984;43.508;1.504;2023-04-30T02:54:05;14.40;99.90
34766;DHT22;20984;43.508;1.504;2023-04-30T02:56:31;14.40;99.90
34766;DHT22;20984;43.508;1.504;2023-04-30T02:58:56;14.40;99.90
34766;DHT22;20984;43.508;1.504;2023-04-30T03:01:22;14.40;99.90
34766;DHT22;20984;43.508;1.504;2023-04-30T03:03:48;14.40;99.90
34766;DHT22;20984;43.508;1.504;2023-04-30T03:06:13;14.40;99.90
34766;DHT22;20984;43.508;1.504;2023-04-30T03:08:39;14.40;99.90
34766;DHT22;20984;43.508;1.504;2023-04-30T03:11:05;14.50;99.90
34766;DHT22;20984;43.508;1.504;2023-04-30T03:13:30;14.40;99.90
34766;DHT22;20984;43.508;1.504;2023-04-30T03:16:00;14.40;99.90
34766;DHT22;20984;43.508;1.504;2023-04-30T03:18:27;14.40;99.90
34766;DHT22;20984;43.508;1.504;2023-04-30T03:20:53;14.40;99.90
34766;DHT22;20984;43.508;1.504;2023-04-30T03:23:18;14.40;99.90
34766;DHT22;20984;43.508;1.504;2023-04-30T03:25:44;14.40;99.90
34766;DHT22;20984;43.508;1.504;2023-04-30T03:28:10;14.40;99.90
34766;DHT22;20984;43.508;1.504;2023-04-30T03:30:35;14.40;99.90
34766;DHT22;20984;43.508;1.504;2023-04-30T03:33:01;14.40;99.90
34766;DHT22;20984;43.508;1.504;2023-04-30T03:35:27;14.40;99.90
34766;DHT22;20984;43.508;1.504;2023-04-30T03:37:52;14.40;99.90
34766;DHT22;20984;43.508;1.504;2023-04-30T03:40:18;14.50;99.90
34766;DHT22;20984;43.508;1.504;2023-04-30T03:42:43;14.40;99.90
34766;DHT22;20984;43.508;1.504;2023-04-30T03:45:09;14.40;99.90
34766;DHT22;20984;43.508;1.504;2023-04-30T03:47:35;14.40;99.90
34766;DHT22;20984;43.508;1.504;2023-04-30T03:50:02;14.40;99.90
34766;DHT22;20984;43.508;1.504;2023-04-30T03:52:28;14.40;99.90
34766;DHT22;20984;43.508;1.504;2023-04-30T03:54:54;14.40;99.90
34766;DHT22;20984;43.508;1.504;2023-04-30T03:57:20;14.40;99.90
34766;DHT22;20984;43.508;1.504;2023-04-30T03:59:46;14.40;99.90
34766;DHT22;20984;43.508;1.504;2023-04-30T04:02:12;14.40;99.90
34766;DHT22;20984;43.508;1.504;2023-04-30T04:04:38;14.40;99.90
34766;DHT22;20984;43.508;1.504;2023-04-30T04:07:04;14.40;99.90
34766;DHT22;20984;43.508;1.504;2023-04-30T04:09:32;14.40;99.90
34766;DHT22;20984;43.508;1.504;2023-04-30T04:11:57;14.40;99.90
34766;DHT22;20984;43.508;1.504;2023-04-30T04:14:23;14.40;99.90
34766;DHT22;20984;43.508;1.504;2023-04-30T04:16:49;14.40;99.90
34766;DHT22;20984;43.508;1.504;2023-04-30T04:19:14;14.40;99.90
34766;DHT22;20984;43.508;1.504;2023-04-30T04:21:40;14.40;99.90
34766;DHT22;20984;43.508;1.504;2023-04-30T04:24:06;14.40;99.90
34766;DHT22;20984;43.508;1.504;2023-04-30T04:26:36;14.40;99.90
34766;DHT22;20984;43.508;1.504;2023-04-30T04:29:03;14.40;99.90
34766;DHT22;20984;43.508;1.504;2023-04-30T04:31:29;14.40;99.90
34766;DHT22;20984;43.508;1.504;2023-04-30T04:33:59;14.40;99.90
34766;DHT22;20984;43.508;1.504;2023-04-30T04:36:26;14.40;99.90
34766;DHT22;20984;43.508;1.504;2023-04-30T04:38:53;14.30;99.90
34766;DHT22;20984;43.508;1.504;2023-04-30T04:41:19;14.30;99.90
34766;DHT22;20984;43.508;1.504;2023-04-30T04:43:45;14.20;99.90
34766;DHT22;20984;43.508;1.504;2023-04-30T04:46:11;14.20;99.90
34766;DHT22;20984;43.508;1.504;2023-04-30T04:48:36;14.20;99.90
34766;DHT22;20984;43.508;1.504;2023-04-30T04:51:02;14.10;99.90
34766;DHT22;20984;43.508;1.504;2023-04-30T04:53:28;14.10;99.90
34766;DHT22;20984;43.508;1.504;2023-04-30T04:55:53;14.10;99.90
34766;DHT22;20984;43.508;1.504;2023-04-30T04:58:19;14.10;99.90
34766;DHT22;20984;43.508;1.504;2023-04-30T05:00:45;14.10;99.90
34766;DHT22;20984;43.508;1.504;2023-04-30T05:03:10;14.00;99.90
34766;DHT22;20984;43.508;1.504;2023-04-30T05:05:36;14.00;99.90
34766;DHT22;20984;43.508;1.504;2023-04-30T05:08:02;14.10;99.90
34766;DHT22;20984;43.508;1.504;2023-04-30T05:10:27;14.00;99.90
34766;DHT22;20984;43.508;1.504;2023-04-30T05:12:53;14.00;99.90
34766;DHT22;20984;43.508;1.504;2023-04-30T05:15:19;14.00;99.90
34766;DHT22;20984;43.508;1.504;2023-04-30T05:17:44;14.00;99.90
34766;DHT22;20984;43.508;1.504;2023-04-30T05:20:11;14.00;99.90
34766;DHT22;20984;43.508;1.504;2023-04-30T05:22:37;14.00;99.90
34766;DHT22;20984;43.508;1.504;2023-04-30T05:25:03;14.10;99.90
34766;DHT22;20984;43.508;1.504;2023-04-30T05:27:29;14.10;99.90
34766;DHT22;20984;43.508;1.504;2023-04-30T05:29:54;14.10;99.90
34766;DHT22;20984;43.508;1.504;2023-04-30T05:32:21;14.10;99.90
34766;DHT22;20984;43.508;1.504;2023-04-30T05:34:47;14.10;99.90
34766;DHT22;20984;43.508;1.504;2023-04-30T05:37:13;14.10;99.90
34766;DHT22;20984;43.508;1.504;2023-04-30T05:39:39;14.10;99.90
34766;DHT22;20984;43.508;1.504;2023-04-30T05:42:05;14.20;99.90
34766;DHT22;20984;43.508;1.504;2023-04-30T05:44:30;14.20;99.90
34766;DHT22;20984;43.508;1.504;2023-04-30T05:46:56;14.10;99.90
34766;DHT22;20984;43.508;1.504;2023-04-30T05:49:21;14.20;99.90
34766;DHT22;20984;43.508;1.504;2023-04-30T05:51:47;14.20;99.90
34766;DHT22;20984;43.508;1.504;2023-04-30T05:54:13;14.20;99.90
34766;DHT22;20984;43.508;1.504;2023-04-30T05:56:38;14.20;99.90
34766;DHT22;20984;43.508;1.504;2023-04-30T05:59:04;14.20;99.90
34766;DHT22;20984;43.508;1.504;2023-04-30T06:01:30;14.20;99.90
34766;DHT22;20984;43.508;1.504;2023-04-30T06:03:55;14.20;99.90
34766;DHT22;20984;43.508;1.504;2023-04-30T06:06:21;14.20;99.90
34766;DHT22;20984;43.508;1.504;2023-04-30T06:08:47;14.20;99.90
34766;DHT22;20984;43.508;1.504;2023-04-30T06:11:12;14.30;99.90
34766;DHT22;20984;43.508;1.504;2023-04-30T06:13:39;14.30;99.90
34766;DHT22;20984;43.508;1.504;2023-04-30T06:16:06;14.30;99.90
34766;DHT22;20984;43.508;1.504;2023-04-30T06:18:32;14.30;99.90
34766;DHT22;20984;43.508;1.504;2023-04-30T06:20:58;14.30;99.90
34766;DHT22;20984;43.508;1.504;2023-04-30T06:23:23;14.30;99.90
34766;DHT22;20984;43.508;1.504;2023-04-30T06:25:49;14.40;99.90
34766;DHT22;20984;43.508;1.504;2023-04-30T06:28:15;14.30;99.90
34766;DHT22;20984;43.508;1.504;2023-04-30T06:30:40;14.30;99.90
34766;DHT22;20984;43.508;1.504;2023-04-30T06:33:06;14.30;99.90
34766;DHT22;20984;43.508;1.504;2023-04-30T06:35:32;14.40;99.90
34766;DHT22;20984;43.508;1.504;2023-04-30T06:37:57;14.30;99.90
34766;DHT22;20984;43.508;1.504;2023-04-30T06:40:23;14.30;99.90
34766;DHT22;20984;43.508;1.504;2023-04-30T06:42:49;14.30;99.90
34766;DHT22;20984;43.508;1.504;2023-04-30T06:45:14;14.40;99.90
34766;DHT22;20984;43.508;1.504;2023-04-30T06:47:40;14.40;99.90
34766;DHT22;20984;43.508;1.504;2023-04-30T06:50:07;14.50;99.90
34766;DHT22;20984;43.508;1.504;2023-04-30T06:52:33;14.50;99.90
34766;DHT22;20984;43.508;1.504;2023-04-30T06:54:59;14.60;99.90
34766;DHT22;20984;43.508;1.504;2023-04-30T06:57:26;14.60;99.90
34766;DHT22;20984;43.508;1.504;2023-04-30T06:59:52;14.60;99.90
34766;DHT22;20984;43.508;1.504;2023-04-30T07:02:18;14.70;99.90
34766;DHT22;20984;43.508;1.504;2023-04-30T07:04:43;14.70;99.90
34766;DHT22;20984;43.508;1.504;2023-04-30T07:07:09;14.70;99.90
34766;DHT22;20984;43.508;1.504;2023-04-30T07:09:35;14.70;99.90
34766;DHT22;20984;43.508;1.504;2023-04-30T07:12:01;14.70;99.90
34766;DHT22;20984;43.508;1.504;2023-04-30T07:14:26;14.70;99.90
34766;DHT22;20984;43.508;1.504;2023-04-30T07:16:52;14.70;99.90
34766;DHT22;20984;43.508;1.504;2023-04-30T07:19:18;14.70;99.90
34766;DHT22;20984;43.508;1.504;2023-04-30T07:21:44;14.70;99.90
34766;DHT22;20984;43.508;1.504;2023-04-30T07:24:10;14.70;99.90
34766;DHT22;20984;43.508;1.504;2023-04-30T07:26:36;14.80;99.90
34766;DHT22;20984;43.508;1.504;2023-04-30T07:29:03;14.90;99.90
34766;DHT22;20984;43.508;1.504;2023-04-30T07:31:28;15.00;99.90
34766;DHT22;20984;43.508;1.504;2023-04-30T07:33:54;15.10;99.90
34766;DHT22;20984;43.508;1.504;2023-04-30T07:36:21;15.00;99.90
34766;DHT22;20984;43.508;1.504;2023-04-30T07:38:46;15.00;99.90
34766;DHT22;20984;43.508;1.504;2023-04-30T07:41:12;15.00;99.90
34766;DHT22;20984;43.508;1.504;2023-04-30T07:43:38;14.90;99.90
34766;DHT22;20984;43.508;1.504;2023-04-30T07:46:04;14.90;99.90
34766;DHT22;20984;43.508;1.504;2023-04-30T07:48:29;14.90;99.90
34766;DHT22;20984;43.508;1.504;2023-04-30T07:50:55;15.00;99.90
34766;DHT22;20984;43.508;1.504;2023-04-30T07:53:25;15.10;99.90
34766;DHT22;20984;43.508;1.504;2023-04-30T07:55:50;15.10;99.90
34766;DHT22;20984;43.508;1.504;2023-04-30T07:58:16;15.10;99.90
34766;DHT22;20984;43.508;1.504;2023-04-30T08:00:42;15.10;99.90
34766;DHT22;20984;43.508;1.504;2023-04-30T08:03:07;15.10;99.90
34766;DHT22;20984;43.508;1.504;2023-04-30T08:05:33;15.10;99.90
34766;DHT22;20984;43.508;1.504;2023-04-30T08:07:59;15.10;99.90
34766;DHT22;20984;43.508;1.504;2023-04-30T08:10:25;15.10;99.90
34766;DHT22;20984;43.508;1.504;2023-04-30T08:12:51;15.20;99.90
34766;DHT22;20984;43.508;1.504;2023-04-30T08:15:17;15.40;99.90
34766;DHT22;20984;43.508;1.504;2023-04-30T08:17:49;15.60;99.90
34766;DHT22;20984;43.508;1.504;2023-04-30T08:20:15;15.80;99.90
34766;DHT22;20984;43.508;1.504;2023-04-30T08:22:42;16.00;99.90
34766;DHT22;20984;43.508;1.504;2023-04-30T08:25:11;16.20;99.90
34766;DHT22;20984;43.508;1.504;2023-04-30T08:27:37;16.20;99.90
34766;DHT22;20984;43.508;1.504;2023-04-30T08:30:04;16.30;99.90
34766;DHT22;20984;43.508;1.504;2023-04-30T08:32:32;16.30;99.90
34766;DHT22;20984;43.508;1.504;2023-04-30T08:34:58;16.10;99.90
34766;DHT22;20984;43.508;1.504;2023-04-30T08:37:24;15.90;99.90
34766;DHT22;20984;43.508;1.504;2023-04-30T08:39:49;15.70;99.90
34766;DHT22;20984;43.508;1.504;2023-04-30T08:42:16;15.50;99.90
34766;DHT22;20984;43.508;1.504;2023-04-30T08:44:43;15.40;99.90
34766;DHT22;20984;43.508;1.504;2023-04-30T08:47:11;15.30;99.90
34766;DHT22;20984;43.508;1.504;2023-04-30T08:49:40;15.40;99.90
34766;DHT22;20984;43.508;1.504;2023-04-30T08:52:06;15.40;99.90
34766;DHT22;20984;43.508;1.504;2023-04-30T08:54:35;15.40;99.90
34766;DHT22;20984;43.508;1.504;2023-04-30T08:57:00;15.40;99.90
34766;DHT22;20984;43.508;1.504;2023-04-30T08:59:27;15.30;99.90
34766;DHT22;20984;43.508;1.504;2023-04-30T09:01:52;15.20;99.90
34766;DHT22;20984;43.508;1.504;2023-04-30T09:04:18;15.20;99.90
34766;DHT22;20984;43.508;1.504;2023-04-30T09:06:44;15.10;99.90
34766;DHT22;20984;43.508;1.504;2023-04-30T09:09:14;15.10;99.90
34766;DHT22;20984;43.508;1.504;2023-04-30T09:11:40;15.00;99.90
34766;DHT22;20984;43.508;1.504;2023-04-30T09:14:07;15.00;99.90
34766;DHT22;20984;43.508;1.504;2023-04-30T09:16:49;14.90;99.90
34766;DHT22;20984;43.508;1.504;2023-04-30T09:19:29;14.90;99.90
34766;DHT22;20984;43.508;1.504;2023-04-30T09:21:55;14.80;99.90
34766;DHT22;20984;43.508;1.504;2023-04-30T09:24:22;14.80;99.90
34766;DHT22;20984;43.508;1.504;2023-04-30T09:26:49;14.70;99.90
34766;DHT22;20984;43.508;1.504;2023-04-30T09:29:15;14.70;99.90
34766;DHT22;20984;43.508;1.504;2023-04-30T09:31:47;14.70;99.90
34766;DHT22;20984;43.508;1.504;2023-04-30T09:34:13;14.80;99.90
34766;DHT22;20984;43.508;1.504;2023-04-30T09:36:52;14.80;99.90
34766;DHT22;20984;43.508;1.504;2023-04-30T09:39:21;15.00;99.90
34766;DHT22;20984;43.508;1.504;2023-04-30T09:41:49;15.00;99.90
34766;DHT22;20984;43.508;1.504;2023-04-30T09:44:35;15.10;99.90
34766;DHT22;20984;43.508;1.504;2023-04-30T09:47:01;15.10;99.90
34766;DHT22;20984;43.508;1.504;2023-04-30T09:49:27;15.20;99.90
34766;DHT22;20984;43.508;1.504;2023-04-30T09:51:58;15.20;99.90
34766;DHT22;20984;43.508;1.504;2023-04-30T09:54:29;15.20;99.90
34766;DHT22;20984;43.508;1.504;2023-04-30T09:56:58;15.20;99.90
34766;DHT22;20984;43.508;1.504;2023-04-30T09:59:34;15.00;99.90
34766;DHT22;20984;43.508;1.504;2023-04-30T10:02:07;15.00;99.90
34766;DHT22;20984;43.508;1.504;2023-04-30T10:04:38;14.90;99.90
34766;DHT22;20984;43.508;1.504;2023-04-30T10:07:16;15.00;99.90
34766;DHT22;20984;43.508;1.504;2023-04-30T10:10:07;15.10;99.90
34766;DHT22;20984;43.508;1.504;2023-04-30T10:12:42;15.10;99.90
34766;DHT22;20984;43.508;1.504;2023-04-30T10:15:15;15.20;99.90
34766;DHT22;20984;43.508;1.504;2023-04-30T10:17:45;15.10;99.90
34766;DHT22;20984;43.508;1.504;2023-04-30T10:20:11;15.10;99.90
34766;DHT22;20984;43.508;1.504;2023-04-30T10:22:38;15.00;99.90
34766;DHT22;20984;43.508;1.504;2023-04-30T10:25:06;15.00;99.90
34766;DHT22;20984;43.508;1.504;2023-04-30T10:27:35;15.00;99.90
34766;DHT22;20984;43.508;1.504;2023-04-30T10:30:01;14.90;99.90
34766;DHT22;20984;43.508;1.504;2023-04-30T10:32:36;14.90;99.90
34766;DHT22;20984;43.508;1.504;2023-04-30T10:35:19;15.10;99.90
34766;DHT22;20984;43.508;1.504;2023-04-30T10:37:54;15.20;99.90
34766;DHT22;20984;43.508;1.504;2023-04-30T10:40:22;15.30;99.90
34766;DHT22;20984;43.508;1.504;2023-04-30T10:42:52;15.30;99.90
34766;DHT22;20984;43.508;1.504;2023-04-30T10:45:36;15.20;99.90
34766;DHT22;20984;43.508;1.504;2023-04-30T10:48:03;15.30;99.90
34766;DHT22;20984;43.508;1.504;2023-04-30T10:50:29;15.50;99.90
34766;DHT22;20984;43.508;1.504;2023-04-30T10:53:02;15.60;99.90
34766;DHT22;20984;43.508;1.504;2023-04-30T10:55:29;15.60;99.90
34766;DHT22;20984;43.508;1.504;2023-04-30T10:57:57;15.50;99.90
34766;DHT22;20984;43.508;1.504;2023-04-30T11:00:27;15.60;99.90
34766;DHT22;20984;43.508;1.504;2023-04-30T11:03:02;15.70;99.90
34766;DHT22;20984;43.508;1.504;2023-04-30T11:05:38;15.70;99.90
34766;DHT22;20984;43.508;1.504;2023-04-30T11:08:04;15.70;99.90
34766;DHT22;20984;43.508;1.504;2023-04-30T11:10:34;15.80;99.90
34766;DHT22;20984;43.508;1.504;2023-04-30T11:13:05;16.00;99.90
34766;DHT22;20984;43.508;1.504;2023-04-30T11:15:32;16.10;99.90
34766;DHT22;20984;43.508;1.504;2023-04-30T11:17:58;16.30;99.90
34766;DHT22;20984;43.508;1.504;2023-04-30T11:20:25;16.30;99.90
34766;DHT22;20984;43.508;1.504;2023-04-30T11:23:14;16.30;99.90
34766;DHT22;20984;43.508;1.504;2023-04-30T11:25:53;16.30;99.90
34766;DHT22;20984;43.508;1.504;2023-04-30T11:28:24;16.40;99.90
34766;DHT22;20984;43.508;1.504;2023-04-30T11:30:55;16.30;99.90
34766;DHT22;20984;43.508;1.504;2023-04-30T11:33:26;16.20;99.90
34766;DHT22;20984;43.508;1.504;2023-04-30T11:35:53;16.00;99.90
34766;DHT22;20984;43.508;1.504;2023-04-30T11:38:34;16.00;99.90
34766;DHT22;20984;43.508;1.504;2023-04-30T11:41:03;16.00;99.90
34766;DHT22;20984;43.508;1.504;2023-04-30T11:43:31;16.00;99.90
34766;DHT22;20984;43.508;1.504;2023-04-30T11:48:34;16.00;99.90
34766;DHT22;20984;43.508;1.504;2023-04-30T11:51:04;16.10;99.90
34766;DHT22;20984;43.508;1.504;2023-04-30T11:53:31;16.10;99.90
34766;DHT22;20984;43.508;1.504;2023-04-30T11:56:01;16.10;99.90
34766;DHT22;20984;43.508;1.504;2023-04-30T11:58:27;16.30;99.90
34766;DHT22;20984;43.508;1.504;2023-04-30T12:00:58;16.40;99.90
34766;DHT22;20984;43.508;1.504;2023-04-30T12:03:25;16.70;99.90
34766;DHT22;20984;43.508;1.504;2023-04-30T12:05:50;16.90;99.90
34766;DHT22;20984;43.508;1.504;2023-04-30T12:08:18;17.30;99.90
34766;DHT22;20984;43.508;1.504;2023-04-30T12:10:44;17.70;99.90
34766;DHT22;20984;43.508;1.504;2023-04-30T12:13:13;17.70;99.90
34766;DHT22;20984;43.508;1.504;2023-04-30T12:15:39;17.90;99.90
34766;DHT22;20984;43.508;1.504;2023-04-30T12:18:12;17.90;99.90
34766;DHT22;20984;43.508;1.504;2023-04-30T12:20:40;17.90;99.90
34766;DHT22;20984;43.508;1.504;2023-04-30T12:23:07;17.90;99.90
34766;DHT22;20984;43.508;1.504;2023-04-30T12:25:40;17.90;99.90
34766;DHT22;20984;43.508;1.504;2023-04-30T12:28:06;18.10;99.90
34766;DHT22;20984;43.508;1.504;2023-04-30T12:30:32;18.00;99.90
34766;DHT22;20984;43.508;1.504;2023-04-30T12:32:59;18.00;99.90
34766;DHT22;20984;43.508;1.504;2023-04-30T12:35:27;17.90;99.90
34766;DHT22;20984;43.508;1.504;2023-04-30T12:38:03;17.90;99.90
34766;DHT22;20984;43.508;1.504;2023-04-30T12:40:29;18.10;99.90
34766;DHT22;20984;43.508;1.504;2023-04-30T12:43:07;18.10;99.90
34766;DHT22;20984;43.508;1.504;2023-04-30T12:45:52;18.20;99.90
34766;DHT22;20984;43.508;1.504;2023-04-30T12:48:20;18.30;99.90
34766;DHT22;20984;43.508;1.504;2023-04-30T12:50:53;18.60;99.90
34766;DHT22;20984;43.508;1.504;2023-04-30T12:53:20;18.90;99.90
34766;DHT22;20984;43.508;1.504;2023-04-30T12:58:36;18.80;99.90
34766;DHT22;20984;43.508;1.504;2023-04-30T13:01:02;18.00;99.90
34766;DHT22;20984;43.508;1.504;2023-04-30T13:03:28;17.20;99.90
34766;DHT22;20984;43.508;1.504;2023-04-30T13:05:54;16.60;99.90
34766;DHT22;20984;43.508;1.504;2023-04-30T13:08:20;16.40;99.90
34766;DHT22;20984;43.508;1.504;2023-04-30T13:10:46;16.40;99.90
34766;DHT22;20984;43.508;1.504;2023-04-30T13:13:13;16.40;99.90
34766;DHT22;20984;43.508;1.504;2023-04-30T13:15:41;16.50;99.90
34766;DHT22;20984;43.508;1.504;2023-04-30T13:18:07;16.50;99.90
34766;DHT22;20984;43.508;1.504;2023-04-30T13:20:37;16.60;99.90
34766;DHT22;20984;43.508;1.504;2023-04-30T13:23:04;16.80;99.90
34766;DHT22;20984;43.508;1.504;2023-04-30T13:25:32;17.20;99.90
34766;DHT22;20984;43.508;1.504;2023-04-30T13:27:58;17.50;99.90
34766;DHT22;20984;43.508;1.504;2023-04-30T13:30:24;17.90;99.90
34766;DHT22;20984;43.508;1.504;2023-04-30T13:32:50;18.20;99.90
34766;DHT22;20984;43.508;1.504;2023-04-30T13:35:17;18.10;99.90
34766;DHT22;20984;43.508;1.504;2023-04-30T13:37:43;18.10;99.90
34766;DHT22;20984;43.508;1.504;2023-04-30T13:40:09;18.20;99.90
34766;DHT22;20984;43.508;1.504;2023-04-30T13:42:39;18.50;99.90
34766;DHT22;20984;43.508;1.504;2023-04-30T13:45:06;18.70;99.90
34766;DHT22;20984;43.508;1.504;2023-04-30T13:47:32;18.90;99.90
34766;DHT22;20984;43.508;1.504;2023-04-30T13:49:59;19.10;99.90
34766;DHT22;20984;43.508;1.504;2023-04-30T13:52:25;19.10;99.90
34766;DHT22;20984;43.508;1.504;2023-04-30T13:54:51;19.10;99.90
34766;DHT22;20984;43.508;1.504;2023-04-30T13:57:17;19.00;99.90
34766;DHT22;20984;43.508;1.504;2023-04-30T13:59:42;19.20;99.90
34766;DHT22;20984;43.508;1.504;2023-04-30T14:02:08;19.30;99.90
34766;DHT22;20984;43.508;1.504;2023-04-30T14:04:35;19.30;99.90
34766;DHT22;20984;43.508;1.504;2023-04-30T14:07:02;19.30;99.90
34766;DHT22;20984;43.508;1.504;2023-04-30T14:09:28;19.20;99.90
34766;DHT22;20984;43.508;1.504;2023-04-30T14:11:54;19.40;99.90
34766;DHT22;20984;43.508;1.504;2023-04-30T14:14:26;19.30;99.90
34766;DHT22;20984;43.508;1.504;2023-04-30T14:16:52;19.10;99.90
34766;DHT22;20984;43.508;1.504;2023-04-30T14:19:18;19.10;99.90
34766;DHT22;20984;43.508;1.504;2023-04-30T14:21:44;19.00;99.90
34766;DHT22;20984;43.508;1.504;2023-04-30T14:24:11;19.10;99.90
34766;DHT22;20984;43.508;1.504;2023-04-30T14:26:43;19.40;99.90
34766;DHT22;20984;43.508;1.504;2023-04-30T14:29:10;19.90;99.90
34766;DHT22;20984;43.508;1.504;2023-04-30T14:31:35;20.30;99.90
34766;DHT22;20984;43.508;1.504;2023-04-30T14:34:01;20.40;99.90
34766;DHT22;20984;43.508;1.504;2023-04-30T14:36:27;20.50;99.90
34766;DHT22;20984;43.508;1.504;2023-04-30T14:38:53;20.50;99.90
34766;DHT22;20984;43.508;1.504;2023-04-30T14:41:19;20.10;99.90
34766;DHT22;20984;43.508;1.504;2023-04-30T14:43:45;20.00;99.90
34766;DHT22;20984;43.508;1.504;2023-04-30T14:46:11;20.50;99.90
34766;DHT22;20984;43.508;1.504;2023-04-30T14:48:37;21.40;99.90
34766;DHT22;20984;43.508;1.504;2023-04-30T14:51:03;22.30;99.90
34766;DHT22;20984;43.508;1.504;2023-04-30T14:53:28;22.40;99.90
34766;DHT22;20984;43.508;1.504;2023-04-30T14:55:54;23.40;99.90
34766;DHT22;20984;43.508;1.504;2023-04-30T14:58:20;24.30;99.90
34766;DHT22;20984;43.508;1.504;2023-04-30T15:00:46;24.40;99.90
34766;DHT22;20984;43.508;1.504;2023-04-30T15:03:13;23.20;99.90
34766;DHT22;20984;43.508;1.504;2023-04-30T15:05:39;21.90;99.90
34766;DHT22;20984;43.508;1.504;2023-04-30T15:08:05;21.10;99.90
34766;DHT22;20984;43.508;1.504;2023-04-30T15:10:31;20.50;99.90
34766;DHT22;20984;43.508;1.504;2023-04-30T15:12:56;20.10;99.90
34766;DHT22;20984;43.508;1.504;2023-04-30T15:15:22;20.80;99.90
34766;DHT22;20984;43.508;1.504;2023-04-30T15:17:53;22.30;99.90
34766;DHT22;20984;43.508;1.504;2023-04-30T15:20:19;23.80;99.90
34766;DHT22;20984;43.508;1.504;2023-04-30T15:22:45;25.10;99.90
34766;DHT22;20984;43.508;1.504;2023-04-30T15:25:11;25.60;99.90
34766;DHT22;20984;43.508;1.504;2023-04-30T15:27:36;25.80;99.90
34766;DHT22;20984;43.508;1.504;2023-04-30T15:30:04;25.90;99.90
34766;DHT22;20984;43.508;1.504;2023-04-30T15:32:29;25.60;99.90
34766;DHT22;20984;43.508;1.504;2023-04-30T15:38:18;24.60;99.90
34766;DHT22;20984;43.508;1.504;2023-04-30T15:40:44;23.80;99.90
34766;DHT22;20984;43.508;1.504;2023-04-30T15:43:10;22.90;99.90
34766;DHT22;20984;43.508;1.504;2023-04-30T15:45:35;22.90;99.90
34766;DHT22;20984;43.508;1.504;2023-04-30T15:48:01;23.80;99.90
34766;DHT22;20984;43.508;1.504;2023-04-30T15:50:27;24.60;99.90
34766;DHT22;20984;43.508;1.504;2023-04-30T15:52:53;24.70;99.90